Time;durP1;ratioP1;P1;durP2;ratioP2;P2;SDS_P1;SDS_P2;PMS_P1;PMS_P2;Temp;Humidity;BMP_temperature;BMP_pressure;BME280_temperature;BME280_humidity;BME280_pressure;Samples;Min_cycle;Max_cycle;Signal;HPM_P1;HPM_P2
2020/12/29 00:01:37;;;;;;;1.20;0.90;;;3.20;98.00;;;;;;5092765;28;20809;-66
2020/12/29 00:04:05;;;;;;;1.20;0.90;;;3.40;98.00;;;;;;5094668;28;20461;-67
2020/12/29 00:06:31;;;;;;;1.17;0.90;;;3.50;98.00;;;;;;5092789;28;20461;-67
2020/12/29 00:08:58;;;;;;;1.20;1.00;;;3.60;98.00;;;;;;5093425;28;20847;-69
2020/12/29 00:11:25;;;;;;;1.20;1.00;;;3.70;98.00;;;;;;5092449;28;20486;-68
2020/12/29 00:13:53;;;;;;;1.10;0.90;;;3.70;98.00;;;;;;5092829;28;20870;-67
2020/12/29 00:16:20;;;;;;;1.20;0.97;;;3.80;98.00;;;;;;5092237;28;21011;-65
2020/12/29 00:18:46;;;;;;;1.20;0.90;;;3.90;98.00;;;;;;5092832;28;20488;-67
2020/12/29 00:21:20;;;;;;;1.33;1.00;;;3.90;98.00;;;;;;5092570;28;20495;-66
2020/12/29 00:23:47;;;;;;;3.63;1.40;;;3.90;98.00;;;;;;5093844;28;20475;-68
2020/12/29 00:26:14;;;;;;;1.20;0.90;;;4.00;98.00;;;;;;5090746;28;20965;-67
2020/12/29 00:28:41;;;;;;;1.20;0.90;;;3.90;98.00;;;;;;5092983;28;20479;-68
2020/12/29 00:31:09;;;;;;;1.20;0.90;;;4.00;98.00;;;;;;5092367;28;20949;-66
2020/12/29 00:33:36;;;;;;;1.20;0.90;;;4.00;98.00;;;;;;5094124;28;20474;-65
2020/12/29 00:36:05;;;;;;;1.20;1.00;;;4.00;98.00;;;;;;5092272;28;20536;-66
2020/12/29 00:38:32;;;;;;;1.20;0.90;;;4.00;98.00;;;;;;5093854;28;20488;-66
2020/12/29 00:40:58;;;;;;;1.20;0.90;;;4.00;98.00;;;;;;5092091;28;20796;-67
2020/12/29 00:43:25;;;;;;;1.20;0.90;;;4.00;98.00;;;;;;5093862;28;21006;-65
2020/12/29 00:45:59;;;;;;;1.20;1.00;;;4.10;98.00;;;;;;5090820;28;20947;-66
2020/12/29 00:48:28;;;;;;;1.20;1.00;;;4.10;98.00;;;;;;5076706;28;20463;-67
2020/12/29 00:50:54;;;;;;;1.20;1.00;;;4.00;98.00;;;;;;5090726;28;20456;-67
2020/12/29 00:53:21;;;;;;;1.20;0.90;;;4.00;98.00;;;;;;5093899;28;20833;-67
2020/12/29 00:55:48;;;;;;;1.20;1.00;;;4.00;98.00;;;;;;5091228;28;20975;-66
2020/12/29 00:58:14;;;;;;;1.20;1.00;;;4.00;98.00;;;;;;5092375;28;20484;-69
2020/12/29 01:00:41;;;;;;;1.20;1.00;;;4.10;98.00;;;;;;5091742;28;20448;-66
2020/12/29 01:03:07;;;;;;;1.20;1.00;;;4.10;98.00;;;;;;5093698;28;20452;-66
2020/12/29 01:05:35;;;;;;;1.20;1.00;;;3.90;98.00;;;;;;5091719;28;20698;-66
2020/12/29 01:08:01;;;;;;;1.30;1.10;;;3.90;98.00;;;;;;5093662;28;20451;-65
2020/12/29 01:10:29;;;;;;;1.20;0.90;;;3.90;98.00;;;;;;5092328;28;20463;-66
2020/12/29 01:12:56;;;;;;;1.20;1.00;;;4.00;98.00;;;;;;5092253;28;20579;-65
2020/12/29 01:15:38;;;;;;;1.20;0.93;;;4.00;98.00;;;;;;5091419;28;20460;-66
2020/12/29 01:18:05;;;;;;;1.20;1.10;;;4.00;98.00;;;;;;5093265;28;20479;-65
2020/12/29 01:20:46;;;;;;;1.20;1.00;;;4.00;98.00;;;;;;5091346;28;20457;-66
2020/12/29 01:23:12;;;;;;;1.30;1.20;;;4.10;98.00;;;;;;5093367;28;20456;-66
2020/12/29 01:25:41;;;;;;;1.20;1.00;;;4.00;98.00;;;;;;5091021;28;20459;-65
2020/12/29 01:28:08;;;;;;;1.30;1.10;;;4.00;98.00;;;;;;5093103;28;20456;-65
2020/12/29 01:30:37;;;;;;;1.20;0.90;;;4.10;98.00;;;;;;5091808;28;20553;-67
2020/12/29 01:33:04;;;;;;;1.20;0.90;;;4.00;98.00;;;;;;5125692;27;20486;-69
2020/12/29 01:35:31;;;;;;;1.20;1.00;;;4.10;98.00;;;;;;5090270;28;20942;-66
2020/12/29 01:37:58;;;;;;;1.20;1.00;;;4.10;98.00;;;;;;5092483;28;20515;-67
2020/12/29 01:40:25;;;;;;;1.20;1.00;;;4.10;98.00;;;;;;5090657;28;20463;-65
2020/12/29 01:42:52;;;;;;;1.20;1.00;;;4.10;98.00;;;;;;5092970;28;20471;-66
2020/12/29 01:45:20;;;;;;;1.20;0.90;;;4.20;98.00;;;;;;5090720;28;20455;-68
2020/12/29 01:47:48;;;;;;;1.20;1.00;;;4.10;98.00;;;;;;5092597;28;20543;-67
2020/12/29 01:50:25;;;;;;;1.20;0.90;;;4.00;98.00;;;;;;5092625;28;20464;-65
2020/12/29 01:53:03;;;;;;;1.20;0.90;;;3.90;98.00;;;;;;5092549;28;20497;-66
2020/12/29 01:55:30;;;;;;;1.20;0.97;;;3.90;98.00;;;;;;5090083;28;20517;-66
2020/12/29 01:58:00;;;;;;;1.30;1.00;;;3.90;98.00;;;;;;5092207;28;20519;-65
2020/12/29 02:00:29;;;;;;;1.20;1.00;;;3.90;98.00;;;;;;5090262;28;20451;-65
2020/12/29 02:02:57;;;;;;;1.20;0.90;;;4.00;98.00;;;;;;5091697;28;20452;-66
2020/12/29 02:05:24;;;;;;;1.20;0.90;;;4.00;98.00;;;;;;5089555;28;20460;-66
2020/12/29 02:07:53;;;;;;;1.20;0.90;;;4.00;98.00;;;;;;5091699;28;20854;-66
2020/12/29 02:10:47;;;;;;;1.17;1.00;;;3.90;98.00;;;;;;5090519;28;20876;-66
2020/12/29 02:13:14;;;;;;;1.20;0.90;;;3.90;98.00;;;;;;5070815;28;20511;-66
2020/12/29 02:15:41;;;;;;;1.20;0.97;;;3.90;98.00;;;;;;5070262;28;20464;-67
2020/12/29 02:18:08;;;;;;;1.20;0.90;;;4.00;98.00;;;;;;5070856;28;20546;-65
2020/12/29 02:20:38;;;;;;;1.40;1.10;;;4.00;98.00;;;;;;5069551;28;20828;-65
2020/12/29 02:23:06;;;;;;;1.20;1.00;;;3.90;98.00;;;;;;5071794;28;20472;-66
2020/12/29 02:25:46;;;;;;;1.20;0.93;;;3.80;98.00;;;;;;5070078;28;20460;-65
2020/12/29 02:28:13;;;;;;;1.30;1.10;;;3.80;98.00;;;;;;5071756;28;20467;-67
2020/12/29 02:30:55;;;;;;;1.20;0.90;;;3.80;98.00;;;;;;5068510;28;20547;-65
2020/12/29 02:33:22;;;;;;;1.20;0.90;;;3.80;98.00;;;;;;5071521;28;20453;-66
2020/12/29 02:35:48;;;;;;;1.20;0.90;;;3.80;98.00;;;;;;5069262;28;20461;-65
2020/12/29 02:38:19;;;;;;;1.20;1.00;;;3.70;98.00;;;;;;5071676;28;20871;-65
2020/12/29 02:40:54;;;;;;;1.20;1.00;;;3.70;98.00;;;;;;5069637;28;20890;-66
2020/12/29 02:43:21;;;;;;;1.20;0.90;;;3.70;98.00;;;;;;5071527;28;20521;-66
2020/12/29 02:45:48;;;;;;;1.13;0.90;;;3.90;98.00;;;;;;5069443;28;20472;-67
2020/12/29 02:48:14;;;;;;;1.20;0.90;;;3.80;98.00;;;;;;5070706;28;20461;-66
2020/12/29 02:50:53;;;;;;;1.20;1.00;;;3.80;98.00;;;;;;5069065;28;20487;-65
2020/12/29 02:53:22;;;;;;;1.20;1.00;;;3.90;98.00;;;;;;5070030;28;20452;-65
2020/12/29 02:55:49;;;;;;;1.20;0.90;;;4.00;98.00;;;;;;5069228;28;20943;-65
2020/12/29 02:58:19;;;;;;;1.30;1.00;;;3.90;98.00;;;;;;5070097;28;20484;-65
2020/12/29 03:00:58;;;;;;;1.20;0.90;;;3.80;98.00;;;;;;5069104;28;20845;-66
2020/12/29 03:03:25;;;;;;;1.90;1.37;;;3.80;98.00;;;;;;5071209;28;20847;-68
2020/12/29 03:05:51;;;;;;;1.20;1.00;;;3.70;98.00;;;;;;5068000;28;20464;-65
2020/12/29 03:08:18;;;;;;;1.20;0.90;;;3.70;98.00;;;;;;5070972;28;20452;-66
2020/12/29 03:10:56;;;;;;;1.20;1.00;;;3.70;98.00;;;;;;5069311;28;20473;-66
2020/12/29 03:13:24;;;;;;;1.20;1.00;;;3.80;98.00;;;;;;5071171;28;20452;-65
2020/12/29 03:15:51;;;;;;;1.20;1.00;;;3.90;98.00;;;;;;5069114;28;20453;-65
2020/12/29 03:18:18;;;;;;;1.20;1.00;;;4.10;98.00;;;;;;5071177;28;20488;-65
2020/12/29 03:20:51;;;;;;;1.20;0.90;;;4.30;98.00;;;;;;5069240;28;21008;-66
2020/12/29 03:23:17;;;;;;;1.20;0.90;;;4.60;98.00;;;;;;5071027;28;20862;-66
2020/12/29 03:25:45;;;;;;;1.20;0.90;;;4.70;98.00;;;;;;5069375;28;20469;-65
2020/12/29 03:28:11;;;;;;;2.53;1.20;;;4.80;98.00;;;;;;5070647;28;20467;-65
2020/12/29 03:30:53;;;;;;;1.13;0.90;;;4.90;98.00;;;;;;5068903;28;20504;-66
2020/12/29 03:33:23;;;;;;;1.20;1.00;;;4.90;98.00;;;;;;5071165;28;20486;-66
2020/12/29 03:35:54;;;;;;;1.20;1.00;;;4.80;98.00;;;;;;5069591;28;20506;-66
2020/12/29 03:38:22;;;;;;;1.20;1.00;;;4.90;98.00;;;;;;5070932;28;20493;-65
2020/12/29 03:40:52;;;;;;;1.17;0.90;;;4.90;98.00;;;;;;5069432;28;21005;-66
2020/12/29 03:43:19;;;;;;;1.20;0.90;;;4.90;98.00;;;;;;5070866;28;20523;-65
2020/12/29 03:45:56;;;;;;;1.30;1.03;;;4.90;98.00;;;;;;5069321;28;20452;-65
2020/12/29 03:48:25;;;;;;;1.20;0.90;;;4.90;98.00;;;;;;5071056;28;20456;-66
2020/12/29 03:50:55;;;;;;;1.10;1.00;;;4.80;98.00;;;;;;5069252;28;20817;-66
2020/12/29 03:53:22;;;;;;;1.20;1.00;;;4.80;98.00;;;;;;5070989;28;20453;-67
2020/12/29 03:56:00;;;;;;;1.20;0.90;;;4.80;98.00;;;;;;5069001;28;20958;-66
2020/12/29 03:58:27;;;;;;;1.20;0.90;;;4.90;98.00;;;;;;5070575;28;20480;-67
2020/12/29 04:00:54;;;;;;;1.20;0.90;;;4.90;98.00;;;;;;5071713;28;20487;-65
2020/12/29 04:03:20;;;;;;;1.20;0.90;;;4.90;98.00;;;;;;5074512;28;20965;-66
2020/12/29 04:05:58;;;;;;;1.20;1.00;;;5.00;98.00;;;;;;5072481;28;20452;-65
2020/12/29 04:08:24;;;;;;;1.20;1.00;;;5.00;98.00;;;;;;5073919;28;20457;-66
2020/12/29 04:10:53;;;;;;;1.20;1.00;;;5.00;98.00;;;;;;5072498;28;20469;-65
2020/12/29 04:13:19;;;;;;;1.20;0.90;;;5.00;98.00;;;;;;5074192;28;20480;-66
2020/12/29 04:15:53;;;;;;;1.20;0.90;;;5.00;98.00;;;;;;5072187;28;20507;-67
2020/12/29 04:18:19;;;;;;;1.20;1.00;;;5.10;98.00;;;;;;5072905;28;20502;-66
2020/12/29 04:20:46;;;;;;;1.20;0.93;;;5.10;98.00;;;;;;5071872;28;20853;-68
2020/12/29 04:23:12;;;;;;;1.20;1.00;;;5.10;98.00;;;;;;5074208;28;20817;-67
2020/12/29 04:25:43;;;;;;;1.20;0.97;;;5.20;98.00;;;;;;5071929;28;20533;-67
2020/12/29 04:28:10;;;;;;;1.20;0.90;;;5.20;98.00;;;;;;5072731;28;20493;-66
2020/12/29 04:30:40;;;;;;;1.20;0.90;;;5.20;98.00;;;;;;5071963;28;20457;-66
2020/12/29 04:33:07;;;;;;;1.20;0.90;;;5.20;98.00;;;;;;5073887;28;20456;-65
2020/12/29 04:35:34;;;;;;;1.20;0.90;;;5.20;98.00;;;;;;5070585;28;20456;-66
2020/12/29 04:38:01;;;;;;;1.20;1.00;;;5.20;98.00;;;;;;5073500;28;20527;-66
2020/12/29 04:40:29;;;;;;;1.20;0.90;;;5.20;98.00;;;;;;5072515;28;20903;-66
2020/12/29 04:42:55;;;;;;;1.20;1.00;;;5.20;98.00;;;;;;5072253;28;20523;-67
2020/12/29 04:45:23;;;;;;;1.20;0.90;;;5.20;98.00;;;;;;5073711;28;20464;-66
2020/12/29 04:47:51;;;;;;;1.20;0.90;;;5.20;98.00;;;;;;5071626;28;20464;-67
2020/12/29 04:50:19;;;;;;;1.20;0.90;;;5.10;98.00;;;;;;5073363;28;20480;-66
2020/12/29 04:52:47;;;;;;;1.20;1.00;;;5.10;98.00;;;;;;5071531;28;20464;-67
2020/12/29 04:55:15;;;;;;;1.20;0.90;;;5.10;98.00;;;;;;5073390;28;20965;-65
2020/12/29 04:57:44;;;;;;;1.20;1.00;;;5.10;98.00;;;;;;5071142;28;20550;-67
2020/12/29 05:00:11;;;;;;;1.17;0.90;;;5.10;98.00;;;;;;5073395;28;20457;-66
2020/12/29 05:02:38;;;;;;;1.20;0.90;;;5.20;98.00;;;;;;5071236;28;20930;-67
2020/12/29 05:05:05;;;;;;;1.20;1.00;;;5.20;98.00;;;;;;5073260;28;20490;-67
2020/12/29 05:07:32;;;;;;;1.20;0.90;;;5.30;98.00;;;;;;5071359;28;20468;-67
2020/12/29 05:10:05;;;;;;;1.20;0.90;;;5.30;98.00;;;;;;5072848;28;20461;-66
2020/12/29 05:12:32;;;;;;;1.20;0.90;;;5.30;98.00;;;;;;5071137;28;20511;-65
2020/12/29 05:14:59;;;;;;;1.20;0.90;;;5.30;98.00;;;;;;5073039;28;20461;-66
2020/12/29 05:17:26;;;;;;;1.20;0.90;;;5.20;98.00;;;;;;5071253;28;20844;-66
2020/12/29 05:19:54;;;;;;;1.20;0.93;;;5.10;98.00;;;;;;5072971;28;20656;-66
2020/12/29 05:22:21;;;;;;;1.20;0.90;;;5.10;98.00;;;;;;5070791;28;20457;-66
2020/12/29 05:24:48;;;;;;;1.20;0.90;;;5.00;98.00;;;;;;5072744;28;20457;-65
2020/12/29 05:27:14;;;;;;;1.20;1.00;;;5.00;98.00;;;;;;5071156;28;20461;-68
2020/12/29 05:29:41;;;;;;;1.20;1.00;;;5.00;98.00;;;;;;5072884;28;20834;-65
2020/12/29 05:32:08;;;;;;;1.13;0.90;;;5.00;98.00;;;;;;5071201;28;20452;-66
2020/12/29 05:34:34;;;;;;;1.20;1.00;;;5.10;98.00;;;;;;5072853;28;20716;-65
2020/12/29 05:37:02;;;;;;;1.20;0.93;;;5.00;98.00;;;;;;5071035;28;20452;-65
2020/12/29 05:39:30;;;;;;;1.20;0.90;;;5.00;98.00;;;;;;5072621;28;20535;-67
2020/12/29 05:41:57;;;;;;;1.20;0.90;;;5.00;98.00;;;;;;5071070;28;20449;-65
2020/12/29 05:44:26;;;;;;;1.20;0.93;;;5.10;98.00;;;;;;5072625;28;20496;-65
2020/12/29 05:46:53;;;;;;;1.20;0.90;;;5.00;98.00;;;;;;5070812;28;20459;-65
2020/12/29 05:49:20;;;;;;;1.20;0.90;;;5.00;98.00;;;;;;5072449;28;20823;-67
2020/12/29 05:51:48;;;;;;;1.20;1.00;;;4.90;98.00;;;;;;5070480;28;20456;-66
2020/12/29 05:54:17;;;;;;;1.40;1.17;;;4.90;98.00;;;;;;5072348;28;20453;-66
2020/12/29 05:56:44;;;;;;;1.20;0.90;;;4.80;98.00;;;;;;5070330;28;21087;-66
2020/12/29 05:59:13;;;;;;;1.20;0.90;;;4.80;98.00;;;;;;5072078;28;21022;-66
2020/12/29 06:01:40;;;;;;;1.20;0.90;;;4.70;98.00;;;;;;5070436;28;20457;-66
2020/12/29 06:04:07;;;;;;;1.20;0.90;;;4.70;98.00;;;;;;5072155;28;20461;-67
2020/12/29 06:06:35;;;;;;;1.20;0.90;;;4.60;98.00;;;;;;5070432;28;20514;-67
2020/12/29 06:09:05;;;;;;;1.20;0.90;;;4.60;98.00;;;;;;5072135;28;20452;-65
2020/12/29 06:11:39;;;;;;;1.10;0.90;;;4.50;98.00;;;;;;5070019;28;20457;-65
2020/12/29 06:14:16;;;;;;;1.10;0.90;;;4.50;98.00;;;;;;5071978;28;20499;-66
2020/12/29 06:16:43;;;;;;;1.10;0.90;;;4.50;98.00;;;;;;5070193;28;20941;-67
2020/12/29 06:19:26;;;;;;;1.10;0.90;;;4.60;98.00;;;;;;5071822;28;20480;-65
2020/12/29 06:22:05;;;;;;;1.20;1.00;;;4.60;98.00;;;;;;5069229;28;20476;-66
2020/12/29 06:24:33;;;;;;;1.17;0.90;;;4.60;98.00;;;;;;5071775;28;20824;-65
2020/12/29 06:27:02;;;;;;;1.10;1.00;;;4.60;98.00;;;;;;5069869;28;20534;-66
2020/12/29 06:29:37;;;;;;;1.10;1.00;;;4.60;98.00;;;;;;5071722;28;20500;-66
2020/12/29 06:32:09;;;;;;;1.20;0.90;;;4.60;98.00;;;;;;5069469;28;20457;-66
2020/12/29 06:34:37;;;;;;;1.10;0.90;;;4.60;98.00;;;;;;5070362;28;20525;-67
2020/12/29 06:37:17;;;;;;;1.10;0.90;;;4.60;98.00;;;;;;5069879;28;20978;-66
2020/12/29 06:39:48;;;;;;;1.10;1.00;;;4.70;98.00;;;;;;5071413;28;20495;-66
2020/12/29 06:42:17;;;;;;;1.13;0.90;;;4.80;98.00;;;;;;5069704;28;20456;-66
2020/12/29 06:44:44;;;;;;;1.20;0.90;;;4.80;98.00;;;;;;5071459;28;20468;-65
2020/12/29 06:47:11;;;;;;;1.20;0.90;;;4.80;98.00;;;;;;5069296;28;20958;-66
2020/12/29 06:49:44;;;;;;;1.20;0.90;;;4.80;98.00;;;;;;5071576;28;20822;-66
2020/12/29 06:52:16;;;;;;;1.20;0.90;;;4.70;98.00;;;;;;5069413;28;20479;-69
2020/12/29 06:54:48;;;;;;;1.10;0.90;;;4.80;98.00;;;;;;5071391;28;20457;-65
2020/12/29 06:57:15;;;;;;;1.10;0.90;;;4.80;98.00;;;;;;5069060;28;20457;-66
2020/12/29 06:59:42;;;;;;;1.10;0.90;;;4.70;98.00;;;;;;5070976;28;20513;-66
2020/12/29 07:02:20;;;;;;;1.10;0.90;;;4.70;98.00;;;;;;5069285;28;20827;-67
2020/12/29 07:04:54;;;;;;;1.10;0.90;;;4.70;98.00;;;;;;5071358;28;20999;-67
2020/12/29 07:07:27;;;;;;;1.10;0.90;;;4.70;98.00;;;;;;5068208;28;20464;-67
2020/12/29 07:10:00;;;;;;;1.17;0.90;;;4.70;98.00;;;;;;5071528;28;20456;-65
2020/12/29 07:12:31;;;;;;;1.17;0.90;;;4.70;98.00;;;;;;5069173;28;20456;-65
2020/12/29 07:15:01;;;;;;;1.20;0.90;;;4.70;98.00;;;;;;5071345;28;20460;-65
2020/12/29 07:17:31;;;;;;;1.20;1.00;;;4.80;98.00;;;;;;5069289;28;20455;-66
2020/12/29 07:19:57;;;;;;;1.10;0.90;;;4.80;98.00;;;;;;5071191;28;20507;-66
2020/12/29 07:22:31;;;;;;;1.80;1.27;;;4.90;98.00;;;;;;5069461;28;20484;-65
2020/12/29 07:24:59;;;;;;;1.20;1.00;;;4.90;98.00;;;;;;5070995;28;20467;-65
2020/12/29 07:27:27;;;;;;;1.10;0.90;;;4.90;98.00;;;;;;5069303;28;20464;-65
2020/12/29 07:29:58;;;;;;;1.20;0.90;;;4.90;98.00;;;;;;5071074;28;20449;-65
2020/12/29 07:32:25;;;;;;;1.13;0.90;;;4.90;98.00;;;;;;5068917;28;20845;-67
2020/12/29 07:34:52;;;;;;;1.20;0.90;;;4.80;98.00;;;;;;5074162;28;20460;-66
2020/12/29 07:37:21;;;;;;;1.20;1.00;;;4.90;98.00;;;;;;5073124;28;20525;-65
2020/12/29 07:39:47;;;;;;;1.20;1.00;;;4.90;98.00;;;;;;5074043;28;20484;-67
2020/12/29 07:42:15;;;;;;;1.40;1.10;;;5.00;98.00;;;;;;5072116;28;20460;-66
2020/12/29 07:44:42;;;;;;;1.20;1.00;;;5.00;98.00;;;;;;5074107;28;20526;-65
2020/12/29 07:47:10;;;;;;;1.20;0.90;;;4.90;98.00;;;;;;5072686;28;20452;-66
2020/12/29 07:49:37;;;;;;;1.20;1.00;;;4.90;98.00;;;;;;5074772;28;20478;-66
2020/12/29 07:52:03;;;;;;;1.17;1.00;;;4.80;98.00;;;;;;5072001;28;20904;-68
2020/12/29 07:54:30;;;;;;;1.23;1.00;;;4.80;98.00;;;;;;5074405;28;20453;-66
2020/12/29 07:56:57;;;;;;;1.20;0.90;;;4.90;98.00;;;;;;5071879;28;20495;-65
2020/12/29 07:59:23;;;;;;;1.17;0.90;;;4.90;98.00;;;;;;5074403;28;20487;-66
2020/12/29 08:01:55;;;;;;;1.20;1.00;;;4.90;98.00;;;;;;5071751;28;20496;-66
2020/12/29 08:04:30;;;;;;;1.20;0.90;;;4.90;98.00;;;;;;5074394;28;20459;-66
2020/12/29 08:06:57;;;;;;;1.20;0.90;;;4.90;98.00;;;;;;5071950;28;20524;-65
2020/12/29 08:09:24;;;;;;;1.20;0.90;;;4.90;98.00;;;;;;5074215;28;20459;-66
2020/12/29 08:11:51;;;;;;;1.17;0.90;;;4.90;98.00;;;;;;5071933;28;20464;-66
2020/12/29 08:14:18;;;;;;;1.10;0.90;;;4.90;98.00;;;;;;5074638;28;20471;-66
2020/12/29 08:16:45;;;;;;;1.10;0.90;;;4.90;98.00;;;;;;5071757;28;20506;-69
2020/12/29 08:19:12;;;;;;;1.20;0.90;;;4.90;98.00;;;;;;5074119;28;20516;-67
2020/12/29 08:21:40;;;;;;;1.20;0.90;;;4.90;98.00;;;;;;5072010;28;20480;-65
2020/12/29 08:24:07;;;;;;;1.20;0.90;;;5.00;98.00;;;;;;5074128;28;20456;-67
2020/12/29 08:26:34;;;;;;;1.20;0.90;;;5.00;98.00;;;;;;5070009;28;20453;-65
2020/12/29 08:29:02;;;;;;;1.20;0.90;;;5.00;98.00;;;;;;5073415;28;20467;-65
2020/12/29 08:31:30;;;;;;;5.20;1.27;;;5.00;98.00;;;;;;5069977;28;20856;-67
2020/12/29 08:33:58;;;;;;;1.30;1.10;;;5.00;98.00;;;;;;5073411;28;20453;-66
2020/12/29 08:36:27;;;;;;;1.20;0.90;;;5.10;98.00;;;;;;5071439;28;21106;-65
2020/12/29 08:39:28;;;;;;;1.20;0.90;;;5.10;98.00;;;;;;5073355;28;20481;-65
2020/12/29 08:41:58;;;;;;;1.20;1.00;;;5.10;98.00;;;;;;5071275;28;20462;-67
2020/12/29 08:44:27;;;;;;;1.10;0.90;;;5.20;98.00;;;;;;5073290;28;20473;-67
2020/12/29 08:46:55;;;;;;;1.10;1.00;;;5.30;98.00;;;;;;5071094;28;20465;-66
2020/12/29 08:49:30;;;;;;;1.20;1.00;;;5.30;98.00;;;;;;5073417;28;20553;-67
2020/12/29 08:51:57;;;;;;;1.20;1.00;;;5.40;98.00;;;;;;5070518;28;20856;-68
2020/12/29 08:54:25;;;;;;;1.20;0.90;;;5.40;98.00;;;;;;5073134;28;20453;-66
2020/12/29 08:57:01;;;;;;;1.20;0.90;;;5.40;98.00;;;;;;5071255;28;20459;-68
2020/12/29 08:59:35;;;;;;;1.20;1.00;;;5.40;98.00;;;;;;5073213;28;20484;-66
2020/12/29 09:02:02;;;;;;;1.20;1.00;;;5.40;98.00;;;;;;5071127;28;20467;-67
2020/12/29 09:04:30;;;;;;;1.20;0.90;;;5.40;98.00;;;;;;5073427;28;20465;-67
2020/12/29 09:07:05;;;;;;;1.20;0.90;;;5.50;98.00;;;;;;5069352;28;20457;-66
2020/12/29 09:09:37;;;;;;;1.30;1.13;;;5.40;98.00;;;;;;5072764;28;20453;-65
2020/12/29 09:12:12;;;;;;;1.20;1.00;;;5.40;98.00;;;;;;5071338;28;20460;-68
2020/12/29 09:14:40;;;;;;;1.53;1.20;;;5.30;98.00;;;;;;5072943;28;20456;-66
2020/12/29 09:17:08;;;;;;;1.20;0.90;;;5.30;98.00;;;;;;5069729;28;20475;-66
2020/12/29 09:19:34;;;;;;;1.10;0.90;;;5.20;98.00;;;;;;5072945;28;20492;-67
2020/12/29 09:22:08;;;;;;;1.10;0.90;;;5.10;98.00;;;;;;5070985;28;20449;-66
2020/12/29 09:24:36;;;;;;;1.10;0.90;;;5.10;98.00;;;;;;5073162;28;20469;-66
2020/12/29 09:27:03;;;;;;;2.40;1.20;;;5.00;98.00;;;;;;5070843;28;20457;-65
2020/12/29 09:29:33;;;;;;;1.10;0.90;;;5.00;98.00;;;;;;5073037;28;20464;-67
2020/12/29 09:32:01;;;;;;;1.10;0.90;;;4.90;98.00;;;;;;5068629;28;20469;-66
2020/12/29 09:34:28;;;;;;;1.20;1.00;;;4.80;98.00;;;;;;5072789;28;20453;-67
2020/12/29 09:36:55;;;;;;;1.10;0.90;;;4.70;98.00;;;;;;5069595;28;20453;-66
2020/12/29 09:39:22;;;;;;;1.10;0.90;;;4.60;98.00;;;;;;5072048;28;20484;-66
2020/12/29 09:41:55;;;;;;;1.10;0.90;;;4.60;98.00;;;;;;5070313;28;20940;-66
2020/12/29 09:44:22;;;;;;;1.10;0.90;;;4.50;98.00;;;;;;5071625;28;20459;-66
2020/12/29 09:46:49;;;;;;;1.10;1.00;;;4.60;98.00;;;;;;5070205;28;20483;-66
2020/12/29 09:49:15;;;;;;;1.10;0.90;;;4.50;98.00;;;;;;5071742;28;20452;-67
2020/12/29 09:51:42;;;;;;;1.10;0.90;;;4.40;98.00;;;;;;5069983;28;20464;-66
2020/12/29 09:54:08;;;;;;;1.10;0.90;;;4.20;98.00;;;;;;5070336;28;20801;-65
2020/12/29 09:56:35;;;;;;;1.10;0.90;;;4.10;98.00;;;;;;5068933;28;20460;-66
2020/12/29 09:59:02;;;;;;;1.10;0.90;;;4.00;98.00;;;;;;5071199;28;20925;-64
2020/12/29 10:01:29;;;;;;;1.10;0.90;;;4.00;98.00;;;;;;5069629;28;21130;-64
2020/12/29 10:03:55;;;;;;;1.10;0.90;;;3.90;98.00;;;;;;5071431;28;20467;-65
2020/12/29 10:06:22;;;;;;;1.10;0.90;;;3.90;98.00;;;;;;5069772;28;20456;-66
2020/12/29 10:08:48;;;;;;;1.10;0.90;;;4.00;98.00;;;;;;5071681;28;20467;-65
2020/12/29 10:11:15;;;;;;;1.10;0.90;;;4.00;98.00;;;;;;5069175;28;20460;-65
2020/12/29 10:13:41;;;;;;;1.10;0.90;;;4.00;98.00;;;;;;5071221;28;20452;-66
2020/12/29 10:16:09;;;;;;;1.10;0.90;;;4.10;98.00;;;;;;5069487;28;20461;-66
2020/12/29 10:18:35;;;;;;;1.10;0.90;;;4.20;98.00;;;;;;5071265;28;20480;-67
2020/12/29 10:21:02;;;;;;;1.10;0.90;;;4.30;98.00;;;;;;5071282;28;20460;-66
2020/12/29 10:23:28;;;;;;;1.10;1.00;;;4.40;98.00;;;;;;5069509;28;20465;-66
2020/12/29 10:25:55;;;;;;;1.10;0.90;;;4.40;98.00;;;;;;5071191;28;20834;-66
2020/12/29 10:28:22;;;;;;;1.10;0.90;;;4.60;98.00;;;;;;5069354;28;20976;-66
2020/12/29 10:30:49;;;;;;;1.10;0.90;;;4.60;98.00;;;;;;5071328;28;20602;-66
2020/12/29 10:33:16;;;;;;;1.10;0.90;;;4.60;98.00;;;;;;5068901;28;20506;-65
2020/12/29 10:35:43;;;;;;;1.10;0.90;;;4.70;98.00;;;;;;5071296;28;20460;-66
2020/12/29 10:38:09;;;;;;;1.10;0.97;;;4.70;98.00;;;;;;5068820;28;20443;-65
2020/12/29 10:40:36;;;;;;;1.10;0.90;;;4.70;98.00;;;;;;5071064;28;20480;-64
2020/12/29 10:43:02;;;;;;;1.10;0.90;;;4.70;98.00;;;;;;5068785;28;20517;-65
2020/12/29 10:45:29;;;;;;;1.10;0.90;;;4.80;98.00;;;;;;5071055;28;20506;-65
2020/12/29 10:47:55;;;;;;;1.10;0.90;;;4.80;98.00;;;;;;5064603;28;20498;-65
2020/12/29 10:50:23;;;;;;;1.10;0.90;;;4.80;98.00;;;;;;5050450;28;20484;-64
2020/12/29 10:52:57;;;;;;;1.10;0.90;;;4.70;98.00;;;;;;5048625;28;21006;-67
2020/12/29 10:55:24;;;;;;;1.10;0.90;;;4.80;98.00;;;;;;5050561;28;20454;-67
2020/12/29 10:57:50;;;;;;;1.30;1.20;;;4.80;98.00;;;;;;5048871;28;20515;-66
2020/12/29 11:00:23;;;;;;;1.27;1.00;;;4.90;98.00;;;;;;5050712;28;20497;-67
2020/12/29 11:02:50;;;;;;;1.10;1.00;;;4.90;98.00;;;;;;5044178;28;20454;-67
2020/12/29 11:05:17;;;;;;;1.10;1.00;;;4.90;98.00;;;;;;5050830;28;20513;-66
2020/12/29 11:07:44;;;;;;;1.10;0.90;;;4.90;98.00;;;;;;5048913;28;20488;-67
2020/12/29 11:10:11;;;;;;;1.10;0.90;;;4.90;98.00;;;;;;5050780;28;20457;-67
2020/12/29 11:12:38;;;;;;;1.10;0.97;;;4.90;98.00;;;;;;5048285;28;20458;-65
2020/12/29 11:15:06;;;;;;;1.10;1.00;;;5.00;98.00;;;;;;5050899;28;20457;-65
2020/12/29 11:17:33;;;;;;;1.10;0.90;;;5.00;98.00;;;;;;5048753;28;20465;-67
2020/12/29 11:20:01;;;;;;;1.33;1.13;;;5.10;98.00;;;;;;5050666;28;20896;-66
2020/12/29 11:22:28;;;;;;;1.10;0.90;;;5.20;98.00;;;;;;5048539;28;20998;-66
2020/12/29 11:24:55;;;;;;;1.10;0.90;;;5.30;98.00;;;;;;5050687;28;20458;-66
2020/12/29 11:27:22;;;;;;;1.10;0.90;;;5.40;98.00;;;;;;5048660;28;20458;-68
2020/12/29 11:29:49;;;;;;;1.13;0.90;;;5.50;98.00;;;;;;5050627;28;20461;-66
2020/12/29 11:32:15;;;;;;;1.20;1.00;;;5.50;98.00;;;;;;5047041;28;20457;-66
2020/12/29 11:34:42;;;;;;;1.10;1.00;;;5.60;98.00;;;;;;5050587;28;20459;-68
2020/12/29 11:37:08;;;;;;;1.17;0.90;;;5.60;98.00;;;;;;5048853;28;20459;-65
2020/12/29 11:39:35;;;;;;;1.10;0.90;;;5.60;98.00;;;;;;5050512;28;20831;-66
2020/12/29 11:42:02;;;;;;;1.10;0.90;;;5.70;98.00;;;;;;5048868;28;20465;-66
2020/12/29 11:44:29;;;;;;;1.20;1.00;;;5.80;98.00;;;;;;5049178;28;20457;-67
2020/12/29 11:46:55;;;;;;;1.20;0.90;;;5.90;98.00;;;;;;5048666;28;20470;-66
2020/12/29 11:49:22;;;;;;;1.20;0.90;;;5.90;98.00;;;;;;5050344;28;20465;-66
2020/12/29 11:51:51;;;;;;;1.20;0.90;;;6.00;98.00;;;;;;5048523;28;20461;-65
2020/12/29 11:54:17;;;;;;;1.20;0.90;;;6.20;98.00;;;;;;5050045;28;20470;-67
2020/12/29 11:56:49;;;;;;;1.20;1.00;;;6.30;98.00;;;;;;5048286;28;20455;-68
2020/12/29 11:59:16;;;;;;;1.20;1.00;;;6.40;98.00;;;;;;5050188;28;20494;-68
2020/12/29 12:01:43;;;;;;;1.20;0.90;;;6.40;98.00;;;;;;5048169;28;20465;-67
2020/12/29 12:04:10;;;;;;;1.20;0.90;;;6.30;98.00;;;;;;5049890;28;20811;-67
2020/12/29 12:06:36;;;;;;;1.20;0.90;;;6.10;98.00;;;;;;5047121;28;20559;-68
2020/12/29 12:09:04;;;;;;;1.20;0.90;;;6.00;98.00;;;;;;5050251;28;20457;-66
2020/12/29 12:11:31;;;;;;;1.20;1.00;;;5.90;98.00;;;;;;5048107;28;20460;-65
2020/12/29 12:13:57;;;;;;;1.30;1.20;;;5.90;98.00;;;;;;5050225;28;20954;-66
2020/12/29 12:16:25;;;;;;;1.20;0.90;;;6.20;98.00;;;;;;5048354;28;20461;-68
2020/12/29 12:18:52;;;;;;;1.10;0.90;;;6.30;98.00;;;;;;5050171;28;20481;-66
2020/12/29 12:21:19;;;;;;;1.20;0.97;;;6.30;98.00;;;;;;5050787;28;20461;-67
2020/12/29 12:23:45;;;;;;;1.20;1.00;;;6.20;98.00;;;;;;5053611;28;20634;-66
2020/12/29 12:26:19;;;;;;;1.20;0.90;;;6.10;98.00;;;;;;5053361;28;20461;-66
2020/12/29 12:28:45;;;;;;;1.20;0.90;;;6.00;98.00;;;;;;5053633;28;20467;-67
2020/12/29 12:31:15;;;;;;;1.20;1.00;;;6.10;98.00;;;;;;5053551;28;20457;-66
2020/12/29 12:33:44;;;;;;;1.20;0.90;;;6.20;98.00;;;;;;5051750;28;20462;-66
2020/12/29 12:36:15;;;;;;;1.20;1.10;;;6.20;98.00;;;;;;5053286;28;20958;-67
2020/12/29 12:38:42;;;;;;;1.20;0.90;;;6.10;98.00;;;;;;5051655;28;20459;-66
2020/12/29 12:41:09;;;;;;;1.57;1.00;;;6.10;98.00;;;;;;5053455;28;20943;-67
2020/12/29 12:43:35;;;;;;;1.20;0.97;;;6.10;98.00;;;;;;5050944;28;20493;-65
2020/12/29 12:46:02;;;;;;;1.20;0.90;;;6.10;98.00;;;;;;5053458;28;20468;-66
2020/12/29 12:48:29;;;;;;;1.20;1.00;;;6.20;98.00;;;;;;5051065;28;20964;-66
2020/12/29 12:50:57;;;;;;;1.20;0.90;;;6.10;98.00;;;;;;5053151;28;20454;-65
2020/12/29 12:53:23;;;;;;;1.20;0.90;;;6.00;98.00;;;;;;5049509;28;20457;-68
2020/12/29 12:55:50;;;;;;;1.20;0.93;;;6.00;98.00;;;;;;5053107;28;20469;-66
2020/12/29 12:58:17;;;;;;;1.20;1.00;;;6.10;98.00;;;;;;5051476;28;20463;-67
2020/12/29 13:00:43;;;;;;;1.20;0.90;;;6.30;98.00;;;;;;5053201;28;20539;-66
2020/12/29 13:03:10;;;;;;;1.20;1.00;;;6.30;98.00;;;;;;5051509;28;20461;-65
2020/12/29 13:05:39;;;;;;;1.20;1.00;;;6.40;98.00;;;;;;5052969;28;20466;-65